Time;durP1;ratioP1;P1;durP2;ratioP2;P2;SDS_P1;SDS_P2;PMS_P1;PMS_P2;Temp;Humidity;BMP_temperature;BMP_pressure;BME280_temperature;BME280_humidity;BME280_pressure;Samples;Min_cycle;Max_cycle;Signal;HPM_P1;HPM_P2
2023/10/07 00:02:18;;;;;;;8.17;4.30;;;7.30;99.90;;;;;;5073749;28;20455;-58
2023/10/07 00:04:44;;;;;;;9.10;4.43;;;7.20;99.90;;;;;;5076613;28;20427;-58
2023/10/07 00:07:11;;;;;;;9.00;4.47;;;7.20;99.90;;;;;;5078147;28;20496;-58
2023/10/07 00:09:41;;;;;;;10.70;4.80;;;7.20;99.90;;;;;;5074876;28;20455;-59
2023/10/07 00:12:28;;;;;;;8.70;4.40;;;7.20;99.90;;;;;;5079629;28;20459;-58
2023/10/07 00:14:53;;;;;;;6.73;4.30;;;7.20;99.90;;;;;;5082031;28;21045;-58
2023/10/07 00:17:19;;;;;;;10.23;5.00;;;7.20;99.90;;;;;;5084369;28;20427;-58
2023/10/07 00:19:46;;;;;;;13.17;5.30;;;7.10;99.90;;;;;;5081010;28;20666;-60
2023/10/07 00:22:14;;;;;;;9.90;5.37;;;7.10;99.90;;;;;;5079905;28;20214;-59
2023/10/07 00:24:43;;;;;;;7.60;4.40;;;7.10;99.90;;;;;;5083078;28;20432;-58
2023/10/07 00:27:26;;;;;;;7.67;4.00;;;7.10;99.90;;;;;;5079605;28;20518;-59
2023/10/07 00:29:55;;;;;;;8.27;5.10;;;7.10;99.90;;;;;;5075443;28;20565;-60
2023/10/07 00:32:32;;;;;;;8.57;4.50;;;7.00;99.90;;;;;;5077323;28;20435;-59
2023/10/07 00:35:01;;;;;;;7.97;4.47;;;7.00;99.90;;;;;;5076014;28;20430;-60
2023/10/07 00:37:29;;;;;;;8.70;4.73;;;6.90;99.90;;;;;;5079575;28;20408;-58
2023/10/07 00:39:55;;;;;;;12.70;5.40;;;6.90;99.90;;;;;;5077239;28;21167;-59
2023/10/07 00:42:22;;;;;;;6.90;4.50;;;6.90;99.90;;;;;;5072575;28;20432;-59
2023/10/07 00:44:52;;;;;;;10.30;5.03;;;6.80;99.90;;;;;;5072741;28;20170;-58
2023/10/07 00:47:19;;;;;;;10.63;5.57;;;6.80;99.90;;;;;;5074905;28;20450;-59
2023/10/07 00:52:29;;;;;;;10.23;5.00;;;6.70;99.90;;;;;;5075964;28;20521;-58
2023/10/07 01:00:00;;;;;;;12.03;6.00;;;6.70;99.90;;;;;;5071160;28;20452;-58
2023/10/07 01:02:31;;;;;;;10.27;5.07;;;6.60;99.90;;;;;;5071383;28;21015;-59
2023/10/07 01:05:09;;;;;;;9.33;4.90;;;6.60;99.90;;;;;;5061763;28;20428;-59
2023/10/07 01:07:35;;;;;;;9.70;5.10;;;6.60;99.90;;;;;;5063447;28;20440;-58
2023/10/07 01:12:37;;;;;;;11.27;5.73;;;6.60;99.90;;;;;;5059914;28;21320;-59
2023/10/07 01:15:18;;;;;;;8.50;5.27;;;6.50;99.90;;;;;;5061394;28;21195;-60
2023/10/07 01:17:45;;;;;;;10.33;4.40;;;6.60;99.90;;;;;;5059491;28;20422;-59
2023/10/07 01:20:13;;;;;;;8.07;4.23;;;6.50;99.90;;;;;;5064316;28;20518;-59
2023/10/07 01:22:44;;;;;;;8.47;4.50;;;6.50;99.90;;;;;;5061705;28;20829;-58
2023/10/07 01:25:17;;;;;;;10.60;4.20;;;6.50;99.90;;;;;;5057229;28;21068;-59
2023/10/07 01:27:49;;;;;;;8.67;4.97;;;6.40;99.90;;;;;;5059779;28;20454;-58
2023/10/07 01:30:16;;;;;;;7.83;5.33;;;6.40;99.90;;;;;;5071341;28;20495;-59
2023/10/07 01:33:02;;;;;;;10.40;4.77;;;6.40;99.90;;;;;;5071136;28;20424;-59
2023/10/07 01:35:39;;;;;;;7.77;4.03;;;6.40;99.90;;;;;;5074884;28;20416;-59
2023/10/07 01:38:07;;;;;;;12.57;5.53;;;6.30;99.90;;;;;;5075369;28;20420;-59
2023/10/07 01:41:14;;;;;;;11.13;4.80;;;6.30;99.90;;;;;;5072406;28;20471;-59
2023/10/07 01:43:30;;;;;;;7.73;4.27;;;6.30;99.90;;;;;;5071056;28;20938;-59
2023/10/07 01:45:55;;;;;;;9.53;4.63;;;6.30;99.90;;;;;;5070212;28;20421;-59
2023/10/07 01:48:21;;;;;;;8.10;5.57;;;6.20;99.90;;;;;;5074367;28;20798;-59
2023/10/07 01:50:47;;;;;;;11.40;4.63;;;6.20;99.90;;;;;;5072986;28;20221;-60
2023/10/07 01:53:16;;;;;;;9.90;5.03;;;6.10;99.90;;;;;;5062423;28;20170;-59
2023/10/07 01:55:48;;;;;;;8.40;4.50;;;6.10;99.90;;;;;;5062217;28;20657;-60
2023/10/07 01:58:15;;;;;;;24.33;4.67;;;6.10;99.90;;;;;;5060285;28;20436;-59
2023/10/07 02:00:57;;;;;;;9.23;5.50;;;6.10;99.90;;;;;;5059831;28;20483;-59
2023/10/07 02:03:23;;;;;;;8.43;4.50;;;6.10;99.90;;;;;;5054778;28;20486;-59
2023/10/07 02:05:50;;;;;;;8.80;4.17;;;6.00;99.90;;;;;;5055282;28;20571;-57
2023/10/07 02:08:25;;;;;;;7.70;4.47;;;6.00;99.90;;;;;;5062524;28;20444;-59
2023/10/07 02:10:57;;;;;;;10.93;5.07;;;6.00;99.90;;;;;;5061832;28;20447;-59
2023/10/07 02:13:24;;;;;;;7.60;4.77;;;6.00;99.90;;;;;;5067754;28;20486;-59
2023/10/07 02:15:54;;;;;;;13.33;5.97;;;6.00;99.90;;;;;;5059753;28;20440;-59
2023/10/07 02:18:21;;;;;;;8.50;4.70;;;5.90;99.90;;;;;;5061807;28;20980;-60
2023/10/07 02:20:49;;;;;;;11.60;4.90;;;5.90;99.90;;;;;;5058378;28;20460;-57
2023/10/07 02:23:40;;;;;;;9.90;4.90;;;5.90;99.90;;;;;;5059742;28;20428;-59
2023/10/07 02:26:07;;;;;;;8.73;4.67;;;5.80;99.90;;;;;;5060637;28;20451;-59
2023/10/07 02:28:35;;;;;;;9.43;4.80;;;5.80;99.90;;;;;;5051721;28;20538;-59
2023/10/07 02:31:15;;;;;;;7.80;4.73;;;5.80;99.90;;;;;;5061436;28;20807;-60
2023/10/07 02:33:53;;;;;;;9.70;5.20;;;5.80;99.90;;;;;;5066916;28;20428;-59
2023/10/07 02:36:28;;;;;;;10.70;5.27;;;5.80;99.90;;;;;;5070876;28;20890;-60
2023/10/07 02:39:24;;;;;;;8.40;4.80;;;5.80;99.90;;;;;;5067281;28;20496;-59
2023/10/07 02:41:50;;;;;;;8.90;4.63;;;5.70;99.90;;;;;;5073573;28;20463;-58
2023/10/07 02:44:17;;;;;;;9.97;5.10;;;5.70;99.90;;;;;;5073611;28;20416;-58
2023/10/07 02:46:52;;;;;;;8.83;4.60;;;5.70;99.90;;;;;;5074979;28;20417;-59
2023/10/07 02:49:20;;;;;;;10.83;4.97;;;5.70;99.90;;;;;;5071723;28;20933;-58
2023/10/07 02:51:48;;;;;;;11.93;5.70;;;5.60;99.90;;;;;;5058813;28;20452;-59
2023/10/07 02:54:18;;;;;;;;;;;;;;;;;;;;;
2023/10/07 02:56:54;;;;;;;9.10;5.60;;;5.60;99.90;;;;;;5060487;28;20428;-59
2023/10/07 02:59:35;;;;;;;10.47;5.07;;;5.60;99.90;;;;;;5065106;28;20974;-58
2023/10/07 03:02:12;;;;;;;11.07;4.73;;;5.60;99.90;;;;;;5059125;28;20560;-59
2023/10/07 03:04:43;;;;;;;13.77;5.70;;;5.60;99.90;;;;;;5057503;28;20436;-59
2023/10/07 03:07:14;;;;;;;7.97;4.90;;;5.60;99.90;;;;;;5056140;28;20515;-59
2023/10/07 03:10:04;;;;;;;8.93;4.93;;;5.60;99.90;;;;;;5056855;28;21106;-60
2023/10/07 03:12:30;;;;;;;8.27;5.00;;;5.50;99.90;;;;;;5065302;28;20499;-59
2023/10/07 03:15:05;;;;;;;11.87;5.40;;;5.50;99.90;;;;;;5061094;28;20909;-59
2023/10/07 03:17:39;;;;;;;9.10;4.70;;;5.50;99.90;;;;;;5064193;28;20773;-58
2023/10/07 03:23:17;;;;;;;6.37;4.40;;;5.40;99.90;;;;;;5067674;28;20414;-60
2023/10/07 03:28:19;;;;;;;7.97;4.37;;;5.40;99.90;;;;;;5060136;28;20938;-57
2023/10/07 03:30:55;;;;;;;12.00;4.90;;;5.30;99.90;;;;;;5073217;28;20838;-59
2023/10/07 03:33:23;;;;;;;8.13;5.00;;;5.30;99.90;;;;;;5069315;28;20444;-57
2023/10/07 03:38:25;;;;;;;10.60;4.93;;;5.20;99.90;;;;;;5070834;28;20427;-59
2023/10/07 03:40:54;;;;;;;8.40;5.23;;;5.20;99.90;;;;;;5070736;28;20464;-58
2023/10/07 03:43:26;;;;;;;10.47;5.70;;;5.20;99.90;;;;;;5071947;28;20419;-58
2023/10/07 03:45:56;;;;;;;8.87;5.70;;;5.20;99.90;;;;;;5072303;28;20461;-58
2023/10/07 03:48:30;;;;;;;8.40;5.53;;;5.20;99.90;;;;;;5071234;28;20431;-58
2023/10/07 03:51:08;;;;;;;11.27;4.70;;;5.20;99.90;;;;;;5064860;28;20912;-59
2023/10/07 03:53:47;;;;;;;11.03;4.87;;;5.20;99.90;;;;;;5068195;28;20523;-58
2023/10/07 03:56:16;;;;;;;7.87;4.77;;;5.20;99.90;;;;;;5063752;28;20437;-59
2023/10/07 03:58:43;;;;;;;8.53;4.87;;;5.20;99.90;;;;;;5063878;28;20424;-59
2023/10/07 04:01:16;;;;;;;12.13;5.97;;;5.20;99.90;;;;;;5064512;28;20509;-59
2023/10/07 04:03:51;;;;;;;11.87;5.70;;;5.10;99.90;;;;;;5067456;28;20428;-59
2023/10/07 04:06:17;;;;;;;13.90;5.83;;;5.10;99.90;;;;;;5065861;28;20436;-58
2023/10/07 04:08:45;;;;;;;9.20;4.97;;;5.10;99.90;;;;;;5059736;28;20452;-58
2023/10/07 04:11:19;;;;;;;8.57;5.87;;;5.10;99.90;;;;;;5057908;28;20436;-59
2023/10/07 04:13:45;;;;;;;8.90;5.60;;;5.00;99.90;;;;;;5058521;28;20513;-58
2023/10/07 04:16:24;;;;;;;10.00;5.10;;;5.00;99.90;;;;;;5067655;28;20464;-55
2023/10/07 04:19:06;;;;;;;9.73;5.17;;;4.90;99.90;;;;;;5063442;28;20447;-59
2023/10/07 04:21:33;;;;;;;8.07;4.50;;;4.90;99.90;;;;;;5069361;28;20483;-57
2023/10/07 04:24:09;;;;;;;10.67;5.47;;;4.90;99.90;;;;;;5055425;28;20439;-58
2023/10/07 04:26:37;;;;;;;9.50;5.63;;;4.90;99.90;;;;;;5061949;28;20429;-59
2023/10/07 04:29:07;;;;;;;11.60;6.07;;;4.90;99.90;;;;;;5058042;28;20439;-59
2023/10/07 04:31:37;;;;;;;16.33;5.70;;;4.80;99.90;;;;;;5059633;28;20432;-58
2023/10/07 04:34:11;;;;;;;9.60;5.20;;;4.80;99.90;;;;;;5056668;28;20556;-59
2023/10/07 04:36:54;;;;;;;12.93;5.77;;;4.80;99.90;;;;;;5057916;28;21219;-59
2023/10/07 04:39:27;;;;;;;13.00;6.93;;;4.80;99.90;;;;;;5062458;28;20462;-58
2023/10/07 04:41:59;;;;;;;10.93;6.10;;;4.80;99.90;;;;;;5061717;28;20490;-59
2023/10/07 04:50:00;;;;;;;9.10;5.60;;;4.70;99.90;;;;;;5058752;28;20448;-59
2023/10/07 04:52:28;;;;;;;12.67;6.07;;;4.70;99.90;;;;;;5065589;28;20980;-58
2023/10/07 04:54:56;;;;;;;8.90;5.83;;;4.70;99.90;;;;;;5060906;28;20436;-59
2023/10/07 04:57:43;;;;;;;11.97;6.40;;;4.70;99.90;;;;;;5057399;28;20513;-59
2023/10/07 05:00:17;;;;;;;10.03;6.03;;;4.70;99.90;;;;;;5058012;28;20456;-58
2023/10/07 05:02:43;;;;;;;10.97;5.07;;;4.70;99.90;;;;;;5058529;28;20458;-58
2023/10/07 05:05:13;;;;;;;13.57;5.80;;;4.70;99.90;;;;;;5061673;28;20497;-59
2023/10/07 05:07:39;;;;;;;7.70;5.07;;;4.60;99.90;;;;;;5063809;28;20555;-58
2023/10/07 05:10:07;;;;;;;10.97;6.80;;;4.60;99.90;;;;;;5059671;28;20456;-59
2023/10/07 05:12:33;;;;;;;10.43;6.03;;;4.70;99.90;;;;;;5058592;28;20432;-58
2023/10/07 05:15:00;;;;;;;12.23;6.50;;;4.70;99.90;;;;;;5056938;28;20434;-58
2023/10/07 05:17:29;;;;;;;10.93;6.10;;;4.60;99.90;;;;;;5059981;28;20804;-57
2023/10/07 05:19:58;;;;;;;11.67;6.60;;;4.70;99.90;;;;;;5061755;28;21868;-58
2023/10/07 05:22:24;;;;;;;10.43;5.80;;;4.60;99.90;;;;;;5062153;28;22223;-59
2023/10/07 05:24:56;;;;;;;11.90;6.40;;;4.70;99.90;;;;;;5060529;28;20439;-59
2023/10/07 05:27:23;;;;;;;11.83;6.00;;;4.60;99.90;;;;;;5059517;28;20465;-58
2023/10/07 05:29:49;;;;;;;12.00;7.07;;;4.60;99.90;;;;;;5059672;28;20512;-59
2023/10/07 05:32:16;;;;;;;13.73;6.67;;;4.60;99.90;;;;;;5063123;28;20435;-60
2023/10/07 05:34:45;;;;;;;13.30;7.00;;;4.60;99.90;;;;;;5066008;28;20436;-59
2023/10/07 05:37:12;;;;;;;15.60;6.60;;;4.50;99.90;;;;;;5071407;28;20454;-57
2023/10/07 05:39:44;;;;;;;13.00;7.43;;;4.50;99.90;;;;;;5071326;28;20467;-57
2023/10/07 05:42:11;;;;;;;12.13;7.53;;;4.50;99.90;;;;;;5072832;28;20499;-57
2023/10/07 05:44:38;;;;;;;14.07;7.40;;;4.50;99.90;;;;;;5078237;28;20426;-55
2023/10/07 05:47:05;;;;;;;15.23;7.80;;;4.50;99.90;;;;;;5071783;28;20424;-57
2023/10/07 05:49:31;;;;;;;12.20;6.50;;;4.50;99.90;;;;;;5071788;28;22153;-57
2023/10/07 05:51:58;;;;;;;10.90;6.50;;;4.50;99.90;;;;;;5073106;28;20432;-57
2023/10/07 05:54:28;;;;;;;10.10;6.73;;;4.60;99.90;;;;;;5061933;28;20449;-57
2023/10/07 05:56:58;;;;;;;7.77;4.73;;;4.60;99.90;;;;;;5056524;28;20809;-56
2023/10/07 05:59:24;;;;;;;6.10;4.30;;;4.70;99.90;;;;;;5058516;28;20445;-57
2023/10/07 06:01:50;;;;;;;12.93;5.20;;;4.70;99.90;;;;;;5059232;28;20468;-58
2023/10/07 06:04:15;;;;;;;7.70;4.67;;;4.80;99.90;;;;;;5059790;28;20467;-57
2023/10/07 06:06:44;;;;;;;13.43;6.43;;;4.80;99.90;;;;;;5062808;28;20549;-58
2023/10/07 06:09:14;;;;;;;12.67;7.80;;;4.80;99.90;;;;;;5058526;28;20210;-58
2023/10/07 06:11:42;;;;;;;13.27;7.50;;;4.70;99.90;;;;;;5064440;28;20440;-57
2023/10/07 06:14:07;;;;;;;12.23;6.40;;;4.70;99.90;;;;;;5064290;28;20545;-57
2023/10/07 06:16:33;;;;;;;10.27;6.33;;;4.60;99.90;;;;;;5059981;28;20439;-56
2023/10/07 06:18:59;;;;;;;14.70;6.53;;;4.60;99.90;;;;;;5065966;28;20178;-55
2023/10/07 06:21:27;;;;;;;11.37;6.03;;;4.60;99.90;;;;;;5066409;28;20219;-58
2023/10/07 06:23:58;;;;;;;10.83;6.10;;;4.60;99.90;;;;;;5062903;28;20653;-57
2023/10/07 06:26:24;;;;;;;12.27;5.73;;;4.70;99.90;;;;;;5058929;28;20481;-54
2023/10/07 06:28:50;;;;;;;13.00;7.17;;;4.70;99.90;;;;;;5065948;28;20910;-53
2023/10/07 06:31:34;;;;;;;12.10;6.63;;;4.80;99.90;;;;;;5066357;28;20523;-54
2023/10/07 06:34:00;;;;;;;13.93;7.23;;;4.80;99.90;;;;;;5063857;28;20531;-53
2023/10/07 06:36:27;;;;;;;11.20;7.07;;;4.80;99.90;;;;;;5065334;28;20856;-53
2023/10/07 06:38:54;;;;;;;19.60;6.63;;;4.90;99.90;;;;;;5057502;28;22355;-58
2023/10/07 06:41:20;;;;;;;10.90;6.23;;;5.00;99.90;;;;;;5061277;28;20468;-54
2023/10/07 06:43:54;;;;;;;10.47;6.20;;;5.00;99.90;;;;;;5058178;28;20467;-59
2023/10/07 06:46:22;;;;;;;9.17;5.77;;;5.10;99.90;;;;;;5063972;28;20428;-53
2023/10/07 06:48:49;;;;;;;9.63;5.60;;;5.20;99.90;;;;;;5060675;28;20466;-58
2023/10/07 06:51:15;;;;;;;11.93;5.70;;;5.30;99.90;;;;;;5059987;28;20444;-56
2023/10/07 06:53:44;;;;;;;9.47;5.40;;;5.40;99.90;;;;;;5060471;28;20531;-56
2023/10/07 06:56:20;;;;;;;11.07;6.37;;;5.40;99.90;;;;;;5060871;28;20224;-57
2023/10/07 06:58:53;;;;;;;10.40;6.20;;;5.50;99.90;;;;;;5059854;28;20448;-57
2023/10/07 07:02:06;;;;;;;16.23;7.20;;;5.60;99.90;;;;;;5061971;28;20472;-56
2023/10/07 07:04:22;;;;;;;13.30;7.90;;;5.60;99.90;;;;;;5061538;28;20437;-53
2023/10/07 07:07:09;;;;;;;17.67;8.70;;;5.70;99.90;;;;;;5063058;28;20433;-57
2023/10/07 07:09:41;;;;;;;18.17;9.00;;;5.70;99.90;;;;;;5076397;28;20826;-51
2023/10/07 07:12:09;;;;;;;13.83;7.03;;;5.70;99.90;;;;;;5064085;28;20433;-50
2023/10/07 07:14:35;;;;;;;14.50;8.00;;;5.80;99.90;;;;;;5066643;28;20879;-51
2023/10/07 07:20:19;;;;;;;18.03;8.97;;;5.80;99.90;;;;;;5067073;28;20463;-50
2023/10/07 07:22:42;;;;;;;15.83;8.70;;;5.90;99.90;;;;;;5062406;28;20421;-55
2023/10/07 07:25:12;;;;;;;22.33;9.70;;;6.00;99.90;;;;;;5063106;28;20448;-53
2023/10/07 07:27:45;;;;;;;16.67;8.00;;;6.00;99.90;;;;;;5065892;28;20412;-52
2023/10/07 07:30:19;;;;;;;15.70;8.27;;;6.00;99.90;;;;;;5062745;28;20452;-50
2023/10/07 07:32:47;;;;;;;15.80;7.90;;;6.10;99.90;;;;;;5064350;28;20428;-54
2023/10/07 07:35:13;;;;;;;22.07;9.33;;;6.30;99.90;;;;;;5064461;28;20954;-54
2023/10/07 07:37:40;;;;;;;23.27;10.17;;;6.30;99.90;;;;;;5060517;28;20432;-56
2023/10/07 07:40:09;;;;;;;22.13;9.97;;;6.50;99.90;;;;;;5063158;28;20457;-55
2023/10/07 07:42:35;;;;;;;22.53;9.30;;;6.60;99.90;;;;;;5066665;28;20463;-54
2023/10/07 07:45:01;;;;;;;26.43;11.73;;;6.70;99.90;;;;;;5065883;28;20446;-58
2023/10/07 07:47:33;;;;;;;26.37;9.77;;;6.80;99.90;;;;;;5058578;28;20425;-54
2023/10/07 07:50:02;;;;;;;18.23;9.70;;;6.90;99.90;;;;;;5065783;28;20198;-55
2023/10/07 07:52:27;;;;;;;16.20;8.47;;;7.00;99.90;;;;;;5066845;28;21025;-54
2023/10/07 07:54:54;;;;;;;19.47;8.60;;;7.10;99.90;;;;;;5060229;28;20554;-59
2023/10/07 07:57:22;;;;;;;15.13;8.07;;;7.20;99.90;;;;;;5063016;28;20187;-59
2023/10/07 07:59:48;;;;;;;12.57;8.17;;;7.40;99.90;;;;;;5066412;28;20567;-58
2023/10/07 08:02:16;;;;;;;16.47;7.90;;;7.50;99.90;;;;;;5063529;28;21508;-58
2023/10/07 08:07:19;;;;;;;14.10;8.13;;;7.80;99.90;;;;;;5061746;28;20444;-58
2023/10/07 08:09:50;;;;;;;15.03;7.97;;;7.90;99.90;;;;;;5063630;28;20498;-59
2023/10/07 08:12:19;;;;;;;17.47;7.40;;;7.90;99.90;;;;;;5061674;28;20775;-59
2023/10/07 08:14:50;;;;;;;14.27;6.97;;;8.00;99.90;;;;;;5062696;28;20487;-58
2023/10/07 08:17:19;;;;;;;24.97;8.17;;;8.20;99.90;;;;;;5061506;28;21004;-58
2023/10/07 08:19:49;;;;;;;16.63;7.50;;;8.30;99.70;;;;;;5065502;28;20463;-57
2023/10/07 08:22:18;;;;;;;12.67;7.50;;;8.40;99.20;;;;;;5062206;28;20546;-57
2023/10/07 08:24:44;;;;;;;18.27;8.37;;;8.50;98.80;;;;;;5067346;28;20481;-58
2023/10/07 08:27:43;;;;;;;19.00;9.10;;;8.60;98.30;;;;;;5069757;28;20511;-58
2023/10/07 08:30:05;;;;;;;19.90;9.50;;;8.80;97.20;;;;;;5053043;28;20488;-60
2023/10/07 08:32:37;;;;;;;18.27;8.20;;;8.90;96.40;;;;;;5068848;28;20501;-57
2023/10/07 08:35:17;;;;;;;16.17;8.43;;;9.10;95.50;;;;;;5075177;28;20514;-57
2023/10/07 08:37:47;;;;;;;14.07;7.70;;;9.20;97.00;;;;;;5063857;28;20912;-56
2023/10/07 08:40:28;;;;;;;13.30;7.70;;;9.40;95.20;;;;;;5067351;28;21104;-56
2023/10/07 08:42:57;;;;;;;14.93;6.80;;;9.60;94.50;;;;;;5066129;28;20425;-57
2023/10/07 08:45:39;;;;;;;18.40;7.83;;;9.80;96.30;;;;;;5069640;28;20464;-56
2023/10/07 08:48:17;;;;;;;15.93;7.93;;;10.00;95.10;;;;;;5061016;28;20460;-58
2023/10/07 08:50:55;;;;;;;12.23;7.40;;;10.20;94.60;;;;;;5061079;28;20561;-58
2023/10/07 08:53:24;;;;;;;15.83;7.93;;;10.40;93.70;;;;;;5070004;28;20860;-59
2023/10/07 08:56:00;;;;;;;13.17;7.03;;;10.60;91.80;;;;;;5069068;28;20471;-57
2023/10/07 08:58:29;;;;;;;15.13;6.80;;;10.80;91.50;;;;;;5062894;28;20481;-58
2023/10/07 09:00:56;;;;;;;12.97;7.00;;;10.90;88.00;;;;;;5063472;28;20490;-58
2023/10/07 09:03:26;;;;;;;12.97;6.93;;;11.00;88.00;;;;;;5068770;28;20445;-59
2023/10/07 09:05:55;;;;;;;16.10;8.10;;;11.20;87.00;;;;;;5066887;28;20433;-57
2023/10/07 09:08:22;;;;;;;17.17;7.63;;;11.30;85.00;;;;;;5065835;28;20922;-58
2023/10/07 09:10:51;;;;;;;17.13;7.80;;;11.40;82.40;;;;;;5063783;28;20448;-58
2023/10/07 09:13:27;;;;;;;17.00;7.90;;;11.60;79.90;;;;;;5064920;28;20421;-58
2023/10/07 09:15:53;;;;;;;12.13;7.80;;;11.70;78.10;;;;;;5070455;28;20427;-58
2023/10/07 09:18:23;;;;;;;11.70;6.50;;;11.90;76.30;;;;;;5065277;28;20432;-58
2023/10/07 09:20:50;;;;;;;14.13;5.97;;;12.10;74.50;;;;;;5066262;28;20467;-58
2023/10/07 09:23:19;;;;;;;12.40;6.97;;;12.20;73.30;;;;;;5065261;28;20447;-57
2023/10/07 09:25:46;;;;;;;11.90;7.10;;;12.40;75.10;;;;;;5062507;28;20421;-59
2023/10/07 09:28:13;;;;;;;11.80;5.97;;;12.70;75.10;;;;;;5064304;28;20417;-58
2023/10/07 09:33:13;;;;;;;10.47;6.80;;;13.10;68.80;;;;;;5070154;28;20462;-58
2023/10/07 09:35:42;;;;;;;16.30;6.00;;;13.20;68.50;;;;;;5067803;28;20421;-58
2023/10/07 09:38:33;;;;;;;10.87;5.93;;;13.30;68.10;;;;;;5064871;28;20847;-58
2023/10/07 09:43:33;;;;;;;10.10;5.10;;;13.80;68.10;;;;;;5064418;28;20440;-58
2023/10/07 09:45:58;;;;;;;8.97;5.70;;;14.10;64.70;;;;;;5065256;28;20424;-58
2023/10/07 09:48:31;;;;;;;9.07;4.73;;;14.60;64.80;;;;;;5068604;28;20474;-58
2023/10/07 09:50:58;;;;;;;8.50;4.60;;;15.00;62.30;;;;;;5065622;28;20213;-58
2023/10/07 09:53:46;;;;;;;9.80;4.83;;;15.50;58.90;;;;;;5061312;28;20440;-58
2023/10/07 09:56:33;;;;;;;8.57;4.20;;;15.80;56.40;;;;;;5067100;28;20510;-58
2023/10/07 09:59:22;;;;;;;6.83;3.90;;;16.10;53.70;;;;;;5064584;28;20732;-58
2023/10/07 10:01:58;;;;;;;7.63;4.33;;;16.20;51.80;;;;;;5064758;28;20515;-58
2023/10/07 10:04:32;;;;;;;9.43;4.37;;;16.30;50.10;;;;;;5066243;28;20440;-58
2023/10/07 10:07:16;;;;;;;11.57;4.50;;;16.30;50.60;;;;;;5066524;28;20468;-58
2023/10/07 10:12:29;;;;;;;9.83;4.40;;;16.20;52.00;;;;;;5063126;28;20424;-58
2023/10/07 10:15:50;;;;;;;12.57;4.60;;;16.30;52.70;;;;;;5060634;28;20444;-58
2023/10/07 10:17:49;;;;;;;8.27;4.60;;;16.30;53.70;;;;;;5066066;28;20462;-58
2023/10/07 10:20:18;;;;;;;6.30;3.90;;;16.40;54.10;;;;;;5065185;28;20448;-58
2023/10/07 10:23:18;;;;;;;6.03;3.27;;;16.50;53.50;;;;;;5060994;28;20545;-58
2023/10/07 10:25:49;;;;;;;13.20;4.50;;;16.60;52.40;;;;;;5059618;28;20439;-58
2023/10/07 10:28:27;;;;;;;7.77;3.53;;;16.70;51.70;;;;;;5064688;28;20428;-58
2023/10/07 10:30:55;;;;;;;5.63;3.10;;;16.70;50.00;;;;;;5062472;28;20494;-58
2023/10/07 10:33:23;;;;;;;4.70;2.53;;;16.70;47.40;;;;;;5060215;28;20528;-59
2023/10/07 10:35:55;;;;;;;4.70;3.00;;;16.80;47.10;;;;;;5060947;28;20428;-59
2023/10/07 10:38:21;;;;;;;6.60;3.20;;;16.90;46.70;;;;;;5062322;28;20487;-59
2023/10/07 10:40:46;;;;;;;7.57;3.17;;;17.20;47.10;;;;;;5061702;28;20461;-58
2023/10/07 10:43:23;;;;;;;6.43;3.30;;;17.40;46.90;;;;;;5058104;28;20178;-58
2023/10/07 10:46:05;;;;;;;9.40;3.60;;;17.60;46.40;;;;;;5060953;28;20206;-59
2023/10/07 10:48:38;;;;;;;9.47;3.17;;;17.90;45.80;;;;;;5059045;28;20520;-58
2023/10/07 10:51:09;;;;;;;6.13;3.30;;;18.10;45.60;;;;;;5058346;28;20549;-58
2023/10/07 10:53:40;;;;;;;7.50;3.37;;;18.30;46.20;;;;;;5060786;28;20823;-59
2023/10/07 10:56:07;;;;;;;5.37;2.80;;;18.50;46.20;;;;;;5061254;28;20554;-59
2023/10/07 10:58:36;;;;;;;8.50;3.47;;;18.60;46.00;;;;;;5060894;28;21031;-59
2023/10/07 11:01:05;;;;;;;6.20;3.57;;;18.60;45.90;;;;;;5061395;28;20934;-58
2023/10/07 11:03:31;;;;;;;8.40;3.67;;;18.70;46.40;;;;;;5057802;28;20874;-60
2023/10/07 11:05:57;;;;;;;8.63;3.87;;;18.70;46.80;;;;;;5055256;28;20452;-59
2023/10/07 11:08:28;;;;;;;5.77;3.73;;;18.60;47.50;;;;;;5056439;28;20444;-58
2023/10/07 11:11:00;;;;;;;8.30;4.20;;;18.50;48.30;;;;;;5055862;28;20984;-59
2023/10/07 11:13:29;;;;;;;7.90;4.00;;;18.40;48.90;;;;;;5058436;28;20424;-59
2023/10/07 11:16:10;;;;;;;8.30;4.20;;;18.40;49.10;;;;;;5058063;28;20971;-59
2023/10/07 11:18:38;;;;;;;7.00;3.87;;;18.30;49.30;;;;;;5064315;28;20456;-59
2023/10/07 11:21:21;;;;;;;9.93;3.67;;;18.30;49.70;;;;;;5061062;28;20460;-59
2023/10/07 11:23:52;;;;;;;7.87;4.63;;;18.40;50.00;;;;;;5055723;28;20433;-59
2023/10/07 11:26:23;;;;;;;7.47;3.67;;;18.80;50.50;;;;;;5064154;28;20436;-60
2023/10/07 11:28:49;;;;;;;5.43;3.80;;;19.40;50.10;;;;;;5052776;28;20486;-59
2023/10/07 11:31:20;;;;;;;7.83;4.17;;;20.10;49.10;;;;;;5060428;28;20453;-60
2023/10/07 11:33:50;;;;;;;6.00;3.60;;;20.70;47.70;;;;;;5059388;28;20635;-59
2023/10/07 11:36:16;;;;;;;7.37;4.03;;;21.30;47.50;;;;;;5062644;28;20441;-60
2023/10/07 11:38:43;;;;;;;7.13;4.33;;;21.80;46.00;;;;;;5062829;28;20993;-59
2023/10/07 11:41:10;;;;;;;5.20;3.20;;;22.00;45.40;;;;;;5052617;28;20997;-59
2023/10/07 11:43:49;;;;;;;6.50;3.63;;;22.30;44.80;;;;;;5053832;28;20536;-59
2023/10/07 11:46:15;;;;;;;5.77;3.73;;;22.60;44.00;;;;;;5059205;28;20795;-59
2023/10/07 11:48:44;;;;;;;6.33;3.60;;;22.90;42.90;;;;;;5059492;28;20440;-59
2023/10/07 11:51:11;;;;;;;4.47;3.30;;;23.30;42.90;;;;;;5063797;28;20455;-60
2023/10/07 11:53:39;;;;;;;6.50;3.57;;;23.60;42.10;;;;;;5061137;28;20451;-59
2023/10/07 11:56:05;;;;;;;10.97;3.80;;;23.80;40.30;;;;;;5064579;28;20423;-59
2023/10/07 11:58:32;;;;;;;4.73;3.20;;;23.90;38.10;;;;;;5063788;28;21005;-59
2023/10/07 12:00:58;;;;;;;5.87;3.50;;;23.90;36.20;;;;;;5062673;28;20214;-59
2023/10/07 12:03:25;;;;;;;10.07;3.50;;;24.00;37.70;;;;;;5063659;28;20424;-59
2023/10/07 12:05:51;;;;;;;6.07;3.67;;;23.90;36.70;;;;;;5062949;28;20216;-59
2023/10/07 12:08:19;;;;;;;6.43;3.23;;;23.90;36.20;;;;;;5064857;28;20444;-59
2023/10/07 12:10:49;;;;;;;6.97;3.30;;;23.80;36.00;;;;;;5062981;28;20201;-59
2023/10/07 12:13:14;;;;;;;8.80;3.20;;;23.90;32.80;;;;;;5060657;28;20848;-60
2023/10/07 12:15:43;;;;;;;5.87;3.30;;;23.90;29.10;;;;;;5061644;28;20432;-60
2023/10/07 12:18:09;;;;;;;4.70;2.70;;;24.00;28.60;;;;;;5061909;28;20644;-58
2023/10/07 12:20:35;;;;;;;6.77;3.50;;;24.10;27.20;;;;;;5059012;28;20509;-60
2023/10/07 12:23:02;;;;;;;5.10;3.20;;;24.30;27.00;;;;;;5058774;28;20432;-59
2023/10/07 12:25:30;;;;;;;6.13;3.30;;;24.40;26.80;;;;;;5054163;28;20221;-59
2023/10/07 12:27:56;;;;;;;6.07;2.93;;;24.60;26.90;;;;;;5056254;28;20519;-59
2023/10/07 12:30:22;;;;;;;6.10;2.50;;;24.70;26.90;;;;;;5063120;28;21116;-60
2023/10/07 12:32:49;;;;;;;5.33;3.10;;;24.80;27.10;;;;;;5065179;28;20739;-58
2023/10/07 12:35:15;;;;;;;6.97;3.10;;;24.80;27.50;;;;;;5064292;28;20806;-59
2023/10/07 12:37:46;;;;;;;6.07;3.20;;;24.70;27.50;;;;;;5061004;28;20434;-59
2023/10/07 12:40:13;;;;;;;4.63;2.83;;;24.60;27.30;;;;;;5062606;28;20221;-59
2023/10/07 12:42:40;;;;;;;8.40;3.40;;;24.50;27.60;;;;;;5061822;28;20468;-58
2023/10/07 12:45:08;;;;;;;7.77;4.20;;;24.50;28.50;;;;;;5064523;28;21283;-59
2023/10/07 12:47:34;;;;;;;8.53;4.00;;;24.40;28.50;;;;;;5065744;28;20417;-59
2023/10/07 12:52:51;;;;;;;9.60;3.20;;;24.50;28.60;;;;;;5064259;28;20485;-58
2023/10/07 12:55:17;;;;;;;6.60;3.20;;;24.60;28.10;;;;;;5065104;28;20432;-59
2023/10/07 12:57:44;;;;;;;4.30;3.20;;;24.70;28.00;;;;;;5069543;28;20430;-59
2023/10/07 13:00:21;;;;;;;4.43;2.60;;;24.90;28.50;;;;;;5068894;28;20440;-59
2023/10/07 13:02:48;;;;;;;4.73;3.33;;;25.10;28.90;;;;;;5065065;28;20508;-58
2023/10/07 13:05:18;;;;;;;4.13;3.13;;;25.10;28.90;;;;;;5068202;28;20428;-59
2023/10/07 13:07:45;;;;;;;5.80;3.03;;;25.20;29.30;;;;;;5069820;28;20443;-60
2023/10/07 13:10:11;;;;;;;8.50;3.07;;;25.10;30.00;;;;;;5065047;28;20547;-60
2023/10/07 13:12:37;;;;;;;5.23;2.97;;;25.00;30.00;;;;;;5066939;28;20496;-60
2023/10/07 13:15:14;;;;;;;7.30;3.00;;;24.80;29.90;;;;;;5066643;28;20440;-60
2023/10/07 13:17:45;;;;;;;6.90;2.97;;;24.70;30.40;;;;;;5068939;28;20519;-60
2023/10/07 13:20:12;;;;;;;5.50;2.80;;;24.60;31.80;;;;;;5067501;28;20449;-60
2023/10/07 13:22:38;;;;;;;6.60;3.20;;;24.50;31.80;;;;;;5067144;28;20474;-59
2023/10/07 13:25:05;;;;;;;6.97;3.50;;;24.50;31.50;;;;;;5067016;28;20515;-59
2023/10/07 13:27:31;;;;;;;7.87;3.70;;;24.50;30.80;;;;;;5067621;28;20181;-59
2023/10/07 13:29:56;;;;;;;8.03;3.20;;;24.50;30.80;;;;;;5064144;28;20459;-60
2023/10/07 13:32:22;;;;;;;8.57;3.33;;;24.50;29.80;;;;;;5066295;28;20817;-59
2023/10/07 13:34:47;;;;;;;5.13;2.97;;;24.60;29.80;;;;;;5067297;28;20173;-59
2023/10/07 13:37:13;;;;;;;7.17;3.20;;;24.80;30.00;;;;;;5065319;28;20276;-60
2023/10/07 13:39:40;;;;;;;4.50;3.00;;;25.00;30.00;;;;;;5065894;28;20205;-60
2023/10/07 13:42:09;;;;;;;6.27;3.00;;;25.20;29.60;;;;;;5067904;28;20178;-60
2023/10/07 13:44:35;;;;;;;6.97;4.23;;;25.40;29.10;;;;;;5069028;28;20828;-60
2023/10/07 13:47:01;;;;;;;5.20;3.20;;;25.60;29.60;;;;;;5066750;28;20482;-59
2023/10/07 13:49:27;;;;;;;5.37;2.90;;;25.90;30.90;;;;;;5065624;28;20205;-60